world map with LRTZ marked

LRTZ - Airport

This information may not be accurate or current and is not valid for navigation or flight planning. No warranty of fitness for any purpose is made or implied.

flag of Romania

Donate via PayPal

Additional information is available on the NEW Great Circle Mapper

Location
City:  Tuzla, Constanta, Romania
Near (Alt.):costinesti, Eforie Sud
Name:Tuzle Airfield
ICAO:LRTZ

Details
Type:Airport (Aerodrome, Airfield)
Latitude:43°59'07"N (43.985214)
Longitude:28°36'24"E (28.606611)
Datum:WGS 1984
Elevation:164 ft (50 m)

Time
Timezone:UTC+2 (DST+5)
Local Time:

Weather
METAR:LRTZ  041400Z 14004KT 9999 BKN200 14/09 Q1021 BLU BLU
TAF:LRTZ  041100Z 0412/0512 27006KT 9999 BKN200 BECMG 0416/0418 05010KT 4000 BR PROB40 TEMPO 0500/0506 0400 FG VV002

Related Locations
Nearby:
Farthest:CHT: 11194 mi / 18015 km
Waitangi [Tuuta], CIT, NZ

Find:

   beyond  
but within

Other Information
Maps:
Sources:

  


 


Great Circle Mapper   Great Circle Mapper
Great Circle Mapper FAQ   Great Circle Mapper FAQ
  Karl's Home Page
KLSē   KLSē Home
   GC on Facebook
Airlines of the World   Airlines of the World
Donate via PayPal


Copyright © 2004-2019, Karl L. Swartz. All rights reserved.
All trademarks mentioned herein belong to their respective owners.

Please see credits for attribution and copyright information.

Karl Swartz <karl@kls2.com>
  Powered by FreeBSD
Valid HTML 4.01!
Labeled with ICRA
hCard Microformat
Geo Microformat